createdAt,value
2022-10-16T00:01:33.694Z,3.58
2022-10-16T00:04:06.231Z,3.40
2022-10-16T00:06:40.974Z,3.17
2022-10-16T00:09:13.920Z,3.72
2022-10-16T00:11:46.413Z,4.00
2022-10-16T00:14:19.675Z,3.92
2022-10-16T00:16:51.051Z,4.15
2022-10-16T00:19:22.353Z,3.92
2022-10-16T00:21:56.380Z,4.30
2022-10-16T00:24:46.514Z,4.18
2022-10-16T00:27:18.114Z,4.15
2022-10-16T00:29:49.519Z,4.80
2022-10-16T00:32:21.795Z,4.50
2022-10-16T00:34:52.858Z,4.88
2022-10-16T00:37:27.190Z,4.25
2022-10-16T00:39:59.758Z,4.43
2022-10-16T00:42:31.164Z,4.68
2022-10-16T00:45:02.770Z,5.32
2022-10-16T00:47:39.285Z,4.45
2022-10-16T00:50:14.057Z,4.88
2022-10-16T00:52:52.895Z,4.78
2022-10-16T00:55:25.172Z,5.00
2022-10-16T00:57:57.218Z,5.22
2022-10-16T01:00:31.103Z,5.40
2022-10-16T01:03:03.945Z,4.72
2022-10-16T01:05:43.423Z,4.78
2022-10-16T01:08:23.108Z,5.30
2022-10-16T01:11:04.691Z,4.88
2022-10-16T01:13:41.441Z,4.63
2022-10-16T01:16:17.751Z,4.68
2022-10-16T01:18:51.076Z,4.63
2022-10-16T01:21:28.957Z,4.10
2022-10-16T01:24:10.923Z,3.92
2022-10-16T01:26:57.481Z,4.07
2022-10-16T01:29:34.778Z,3.58
2022-10-16T01:32:14.061Z,3.75
2022-10-16T01:34:52.324Z,3.65
2022-10-16T01:37:33.931Z,3.65
2022-10-16T01:40:10.567Z,3.92
2022-10-16T01:42:46.913Z,3.53
2022-10-16T01:45:23.780Z,4.00
2022-10-16T01:50:29.606Z,3.88
2022-10-16T01:53:02.602Z,3.60
2022-10-16T01:55:36.865Z,3.75
2022-10-16T01:58:12.242Z,3.20
2022-10-16T02:00:49.262Z,3.75
2022-10-16T02:03:24.641Z,3.70
2022-10-16T02:05:59.228Z,3.55
2022-10-16T02:08:34.179Z,3.63
2022-10-16T02:11:06.422Z,3.55
2022-10-16T02:13:42.543Z,3.38
2022-10-16T02:16:17.679Z,3.47
2022-10-16T02:18:49.665Z,3.70
2022-10-16T02:21:28.175Z,3.70
2022-10-16T02:24:06.661Z,4.53
2022-10-16T02:26:45.494Z,3.78
2022-10-16T02:29:21.775Z,4.30
2022-10-16T02:31:59.883Z,3.53
2022-10-16T02:34:33.597Z,4.28
2022-10-16T02:37:08.146Z,3.40
2022-10-16T02:39:39.653Z,3.72
2022-10-16T02:42:15.254Z,3.97
2022-10-16T02:44:46.647Z,3.60
2022-10-16T02:47:20.940Z,3.88
2022-10-16T02:49:52.436Z,4.30
2022-10-16T02:52:24.083Z,4.22
2022-10-16T02:54:55.590Z,4.18
2022-10-16T02:57:28.148Z,4.03
2022-10-16T02:59:59.757Z,4.82
2022-10-16T03:02:34.160Z,4.43
2022-10-16T03:05:05.683Z,4.65
2022-10-16T03:07:37.103Z,4.15
2022-10-16T03:10:09.209Z,4.10
2022-10-16T03:12:41.002Z,4.35
2022-10-16T03:15:14.392Z,4.53
2022-10-16T03:17:48.953Z,4.05
2022-10-16T03:20:20.884Z,4.22
2022-10-16T03:22:52.292Z,4.32
2022-10-16T03:25:24.158Z,4.30
2022-10-16T03:27:55.543Z,4.75
2022-10-16T03:30:27.610Z,4.38
2022-10-16T03:33:01.861Z,4.57
2022-10-16T03:35:33.026Z,4.35
2022-10-16T03:38:04.402Z,4.88
2022-10-16T03:40:36.109Z,4.30
2022-10-16T03:43:07.826Z,5.13
2022-10-16T03:45:39.670Z,4.75
2022-10-16T03:48:13.707Z,4.40
2022-10-16T03:50:45.554Z,4.25
2022-10-16T03:53:16.889Z,4.47
2022-10-16T03:55:48.872Z,4.45
2022-10-16T03:58:21.345Z,4.35
2022-10-16T04:00:52.967Z,3.88
2022-10-16T04:03:27.362Z,4.53
2022-10-16T04:06:00.946Z,4.30
2022-10-16T04:08:33.125Z,4.38
2022-10-16T04:11:04.489Z,4.10
2022-10-16T04:13:36.067Z,4.65
2022-10-16T04:16:07.618Z,5.13
2022-10-16T04:18:41.874Z,4.55
2022-10-16T04:21:13.235Z,4.18
2022-10-16T04:23:45.064Z,3.90
2022-10-16T04:26:17.260Z,4.82
2022-10-16T04:28:48.650Z,5.45
2022-10-16T04:31:20.082Z,4.80
2022-10-16T04:33:53.997Z,4.30
2022-10-16T04:36:28.426Z,4.25
2022-10-16T04:39:01.094Z,4.43
2022-10-16T04:41:32.650Z,4.57
2022-10-16T04:44:04.211Z,4.85
2022-10-16T04:46:35.894Z,4.50
2022-10-16T04:49:10.974Z,4.95
2022-10-16T04:51:42.376Z,5.10
2022-10-16T04:54:14.859Z,4.97
2022-10-16T04:56:48.856Z,5.22
2022-10-16T04:59:20.718Z,4.80
2022-10-16T05:01:52.081Z,6.15
2022-10-16T05:04:27.017Z,5.40
2022-10-16T05:06:58.567Z,5.20
2022-10-16T05:09:30.588Z,5.68
2022-10-16T05:12:02.215Z,5.65
2022-10-16T05:14:33.857Z,5.75
2022-10-16T05:17:05.515Z,6.05
2022-10-16T05:19:39.429Z,5.95
2022-10-16T05:22:10.611Z,6.47
2022-10-16T05:24:41.728Z,6.65
2022-10-16T05:27:20.201Z,5.93
2022-10-16T05:29:52.564Z,6.13
2022-10-16T05:32:27.059Z,6.30
2022-10-16T05:35:01.184Z,6.78
2022-10-16T05:37:32.442Z,7.10
2022-10-16T05:40:04.049Z,7.35
2022-10-16T05:42:35.235Z,7.47
2022-10-16T05:45:10.265Z,6.70
2022-10-16T05:47:40.879Z,7.85
2022-10-16T05:50:14.981Z,8.38
2022-10-16T05:52:45.835Z,7.28
2022-10-16T05:55:16.845Z,7.80
2022-10-16T05:57:47.602Z,8.60
2022-10-16T06:00:18.520Z,7.20
2022-10-16T06:02:51.402Z,7.85
2022-10-16T06:05:24.950Z,8.05
2022-10-16T06:07:56.134Z,8.32
2022-10-16T06:10:26.975Z,7.38
2022-10-16T06:12:57.999Z,8.30
2022-10-16T06:15:28.882Z,8.18
2022-10-16T06:17:59.921Z,8.68
2022-10-16T06:20:33.588Z,8.45
2022-10-16T06:23:05.332Z,9.23
2022-10-16T06:25:36.534Z,8.88
2022-10-16T06:28:07.608Z,8.45
2022-10-16T06:30:38.346Z,8.82
2022-10-16T06:33:09.334Z,9.73
2022-10-16T06:35:43.472Z,8.80
2022-10-16T06:38:14.160Z,9.00
2022-10-16T06:40:44.994Z,8.95
2022-10-16T06:43:15.641Z,9.45
2022-10-16T06:45:46.258Z,9.15
2022-10-16T06:48:17.120Z,8.43
2022-10-16T06:51:00.267Z,7.72
2022-10-16T06:53:44.089Z,6.57
2022-10-16T06:56:27.112Z,6.05
2022-10-16T06:58:58.562Z,6.07
2022-10-16T07:01:30.273Z,6.07
2022-10-16T07:04:01.078Z,5.70
2022-10-16T07:06:37.298Z,5.95
2022-10-16T07:09:09.839Z,6.20
2022-10-16T07:11:42.899Z,5.90
2022-10-16T07:14:21.128Z,5.80
2022-10-16T07:16:52.776Z,5.88
2022-10-16T07:19:23.428Z,6.50
2022-10-16T07:21:58.252Z,5.13
2022-10-16T07:24:29.428Z,5.38
2022-10-16T07:27:00.075Z,5.65
2022-10-16T07:29:31.003Z,5.28
2022-10-16T07:32:02.163Z,5.18
2022-10-16T07:34:33.266Z,5.43
2022-10-16T07:37:06.687Z,4.65
2022-10-16T07:39:37.647Z,4.32
2022-10-16T07:42:08.954Z,4.72
2022-10-16T07:44:40.078Z,4.25
2022-10-16T07:47:11.393Z,4.53
2022-10-16T07:49:42.380Z,4.28
2022-10-16T07:52:15.721Z,4.45
2022-10-16T07:54:46.823Z,3.90
2022-10-16T07:57:20.644Z,4.10
2022-10-16T07:59:51.589Z,4.40
2022-10-16T08:02:22.924Z,3.65
2022-10-16T08:04:54.497Z,4.20
2022-10-16T08:07:28.038Z,4.25
2022-10-16T08:09:59.978Z,3.70
2022-10-16T08:12:30.929Z,3.05
2022-10-16T08:15:01.794Z,3.47
2022-10-16T08:17:32.941Z,2.88
2022-10-16T08:20:03.738Z,2.70
2022-10-16T08:22:37.263Z,2.75
2022-10-16T08:25:08.673Z,2.63
2022-10-16T08:27:39.768Z,2.97
2022-10-16T08:30:17.728Z,2.53
2022-10-16T08:32:50.225Z,2.08
2022-10-16T08:35:24.697Z,2.28
2022-10-16T08:37:58.617Z,1.90
2022-10-16T08:40:33.925Z,2.00
2022-10-16T08:43:18.991Z,1.77
2022-10-16T08:46:05.324Z,1.40
2022-10-16T08:48:45.792Z,1.20
2022-10-16T08:51:24.169Z,1.23
2022-10-16T08:54:00.995Z,0.80
2022-10-16T08:59:03.453Z,0.60
2022-10-16T09:01:43.037Z,0.60
2022-10-16T09:04:56.321Z,0.68
2022-10-16T09:07:36.257Z,0.60
2022-10-16T09:10:22.596Z,0.60
2022-10-16T09:13:00.464Z,1.08
2022-10-16T09:15:36.801Z,0.63
2022-10-16T09:18:16.755Z,0.85
2022-10-16T09:20:55.560Z,0.95
2022-10-16T09:23:38.727Z,0.80
2022-10-16T09:26:17.018Z,0.95
2022-10-16T09:28:47.932Z,0.82
2022-10-16T09:31:22.133Z,1.00
2022-10-16T09:33:57.612Z,1.23
2022-10-16T09:36:29.771Z,1.10
2022-10-16T09:39:08.869Z,0.95
2022-10-16T09:41:45.479Z,1.17
2022-10-16T09:44:25.312Z,1.10
2022-10-16T09:47:06.516Z,0.77
2022-10-16T09:49:37.901Z,1.00
2022-10-16T09:52:10.254Z,1.45
2022-10-16T09:54:41.029Z,1.20
2022-10-16T09:57:22.013Z,1.45
2022-10-16T09:59:54.709Z,1.20
2022-10-16T10:02:33.754Z,1.25
2022-10-16T10:05:05.253Z,1.05
2022-10-16T10:07:38.424Z,0.80
2022-10-16T10:10:10.775Z,0.43
2022-10-16T10:12:45.154Z,0.60
2022-10-16T10:15:21.408Z,0.57
2022-10-16T10:17:54.823Z,0.30
2022-10-16T10:20:32.641Z,0.50
2022-10-16T10:23:04.420Z,0.75
2022-10-16T10:25:49.357Z,0.80
2022-10-16T10:28:49.873Z,0.52
2022-10-16T10:31:25.707Z,0.65
2022-10-16T10:34:03.466Z,0.60
2022-10-16T10:36:39.692Z,1.02
2022-10-16T10:39:18.878Z,0.40
2022-10-16T10:42:11.109Z,0.50
2022-10-16T10:45:08.384Z,0.70
2022-10-16T10:47:48.941Z,0.52
2022-10-16T10:50:28.168Z,0.65
2022-10-16T10:53:10.703Z,0.90
2022-10-16T10:55:48.688Z,0.50
2022-10-16T10:58:36.633Z,0.47
2022-10-16T11:01:14.579Z,0.50
2022-10-16T11:04:03.058Z,0.40
2022-10-16T11:06:38.480Z,0.50
2022-10-16T11:09:19.221Z,0.90
2022-10-16T11:11:54.843Z,0.80
2022-10-16T11:14:30.171Z,0.40
2022-10-16T11:17:10.302Z,0.57
2022-10-16T11:19:46.693Z,1.25
2022-10-16T11:22:22.820Z,0.50
2022-10-16T11:27:41.028Z,1.10
2022-10-16T11:30:21.387Z,0.90
2022-10-16T11:33:32.780Z,0.85
2022-10-16T11:36:12.768Z,0.98
2022-10-16T11:38:55.285Z,0.85
2022-10-16T11:41:31.653Z,1.10
2022-10-16T11:44:18.827Z,1.33
2022-10-16T11:47:08.680Z,4.15
2022-10-16T11:49:44.506Z,2.13
2022-10-16T11:52:25.111Z,11.57
2022-10-16T11:55:00.686Z,2.00
2022-10-16T11:57:36.361Z,1.65
2022-10-16T12:00:14.021Z,1.80
2022-10-16T12:02:57.446Z,1.25
2022-10-16T12:05:39.717Z,1.35
2022-10-16T12:08:14.662Z,1.30
2022-10-16T12:10:48.245Z,1.52
2022-10-16T12:13:35.489Z,1.60
2022-10-16T12:16:11.720Z,1.80
2022-10-16T12:18:43.868Z,1.77
2022-10-16T12:21:20.411Z,1.90
2022-10-16T12:23:54.079Z,2.17
2022-10-16T12:26:32.683Z,3.03
2022-10-16T12:29:18.535Z,2.60
2022-10-16T12:31:57.350Z,2.30
2022-10-16T12:34:33.656Z,2.40
2022-10-16T12:37:18.201Z,2.00
2022-10-16T12:39:49.790Z,1.65
2022-10-16T12:42:35.973Z,1.63
2022-10-16T12:45:27.905Z,1.30
2022-10-16T12:48:00.863Z,1.67
2022-10-16T12:50:36.940Z,1.23
2022-10-16T12:53:24.117Z,1.70
2022-10-16T12:56:09.314Z,1.70
2022-10-16T12:59:06.529Z,2.55
2022-10-16T13:01:46.341Z,1.57
2022-10-16T13:04:47.402Z,1.77
2022-10-16T13:07:35.846Z,1.50
2022-10-16T13:10:19.750Z,1.35
2022-10-16T13:13:17.763Z,1.73
2022-10-16T13:18:32.700Z,1.40
2022-10-16T13:21:22.061Z,1.10
2022-10-16T13:24:02.806Z,1.55
2022-10-16T13:26:44.122Z,1.00
2022-10-16T13:29:16.040Z,1.30
2022-10-16T13:31:48.057Z,0.85
2022-10-16T13:34:22.724Z,1.15
2022-10-16T13:36:55.284Z,1.25
2022-10-16T13:39:29.303Z,1.10
2022-10-16T13:42:10.781Z,0.95
2022-10-16T13:44:45.883Z,1.05
2022-10-16T13:47:21.519Z,1.75
2022-10-16T13:50:04.840Z,1.15
2022-10-16T13:52:36.494Z,1.20
2022-10-16T13:55:08.119Z,1.00
2022-10-16T13:57:42.282Z,1.10
2022-10-16T14:00:24.454Z,0.85
2022-10-16T14:02:59.778Z,0.95
2022-10-16T14:05:31.078Z,1.63
2022-10-16T14:08:03.007Z,1.00
2022-10-16T14:10:36.557Z,1.13
2022-10-16T14:13:12.735Z,1.27
2022-10-16T14:15:43.714Z,1.33
2022-10-16T14:18:23.118Z,1.17
2022-10-16T14:20:58.421Z,1.15
2022-10-16T14:23:35.691Z,1.35
2022-10-16T14:26:20.714Z,1.15
2022-10-16T14:29:08.076Z,1.13
2022-10-16T14:34:28.896Z,1.70
2022-10-16T14:37:00.324Z,1.20
2022-10-16T14:39:31.215Z,1.25
2022-10-16T14:42:02.799Z,1.10
2022-10-16T14:44:37.727Z,1.10
2022-10-16T14:47:13.987Z,1.23
2022-10-16T14:49:46.390Z,0.85
2022-10-16T14:52:17.828Z,1.25
2022-10-16T14:54:51.949Z,1.17
2022-10-16T14:57:25.816Z,1.30
2022-10-16T15:00:00.466Z,1.05
2022-10-16T15:02:33.778Z,1.15
2022-10-16T15:05:16.110Z,1.20
2022-10-16T15:07:47.699Z,1.30
2022-10-16T15:10:19.325Z,1.42
2022-10-16T15:12:50.470Z,1.50
2022-10-16T15:15:41.307Z,1.35
2022-10-16T15:18:12.952Z,1.58
2022-10-16T15:20:44.892Z,1.50
2022-10-16T15:23:20.053Z,1.80
2022-10-16T15:25:52.461Z,1.65
2022-10-16T15:28:24.927Z,1.80
2022-10-16T15:31:00.832Z,1.95
2022-10-16T15:33:38.726Z,2.05
2022-10-16T15:36:11.520Z,3.20
2022-10-16T15:38:43.692Z,2.60
2022-10-16T15:41:14.625Z,2.35
2022-10-16T15:43:45.781Z,2.55
2022-10-16T15:46:21.613Z,3.08
2022-10-16T15:48:53.418Z,2.60
2022-10-16T15:51:24.459Z,2.50
2022-10-16T15:53:55.856Z,1.83
2022-10-16T15:56:27.276Z,2.33
2022-10-16T15:58:58.451Z,2.53
2022-10-16T16:01:33.387Z,2.63
2022-10-16T16:04:15.231Z,2.70
2022-10-16T16:06:51.596Z,3.00
2022-10-16T16:09:22.605Z,3.00
2022-10-16T16:11:54.472Z,3.30
2022-10-16T16:14:27.430Z,3.25
2022-10-16T16:17:03.341Z,3.00
2022-10-16T16:19:34.418Z,2.60
2022-10-16T16:22:09.450Z,2.60
2022-10-16T16:24:43.560Z,2.28
2022-10-16T16:27:14.901Z,2.40
2022-10-16T16:29:46.214Z,2.42
2022-10-16T16:32:19.627Z,2.28
2022-10-16T16:34:51.211Z,2.33
2022-10-16T16:37:22.202Z,2.50
2022-10-16T16:39:53.382Z,3.70
2022-10-16T16:42:25.328Z,2.75
2022-10-16T16:44:56.794Z,2.33
2022-10-16T16:47:30.721Z,2.83
2022-10-16T16:50:06.070Z,2.92
2022-10-16T16:52:37.075Z,3.08
2022-10-16T16:55:08.868Z,3.00
2022-10-16T16:57:39.838Z,2.80
2022-10-16T17:00:12.287Z,2.78
2022-10-16T17:02:46.311Z,2.97
2022-10-16T17:05:17.655Z,3.08
2022-10-16T17:07:48.800Z,2.80
2022-10-16T17:10:20.006Z,3.38
2022-10-16T17:12:51.459Z,5.45
2022-10-16T17:15:22.932Z,3.90
2022-10-16T17:17:56.500Z,4.05
2022-10-16T17:20:27.231Z,4.20
2022-10-16T17:22:58.105Z,6.28
2022-10-16T17:25:31.979Z,4.95
2022-10-16T17:28:05.123Z,3.53
2022-10-16T17:30:36.273Z,3.50
2022-10-16T17:33:10.335Z,3.97
2022-10-16T17:35:42.099Z,3.88
2022-10-16T17:38:13.671Z,4.05
2022-10-16T17:40:45.163Z,3.63
2022-10-16T17:43:16.134Z,3.15
2022-10-16T17:45:47.821Z,3.05
2022-10-16T17:48:21.895Z,3.00
2022-10-16T17:50:53.244Z,4.10
2022-10-16T17:53:24.225Z,3.70
2022-10-16T17:55:59.581Z,3.63
2022-10-16T17:58:30.643Z,3.63
2022-10-16T18:01:01.733Z,3.95
2022-10-16T18:03:35.380Z,3.72
2022-10-16T18:06:06.946Z,4.28
2022-10-16T18:08:40.022Z,4.13
2022-10-16T18:11:13.255Z,4.47
2022-10-16T18:13:44.884Z,4.68
2022-10-16T18:16:18.008Z,5.22
2022-10-16T18:18:52.250Z,6.00
2022-10-16T18:21:24.244Z,6.05
2022-10-16T18:23:55.462Z,4.28
2022-10-16T18:26:27.237Z,6.18
2022-10-16T18:29:00.918Z,6.60
2022-10-16T18:31:33.401Z,6.15
2022-10-16T18:34:07.995Z,5.60
2022-10-16T18:36:39.947Z,5.63
2022-10-16T18:39:11.776Z,4.80
2022-10-16T18:41:44.949Z,5.35
2022-10-16T18:44:16.444Z,4.80
2022-10-16T18:46:48.072Z,4.93
2022-10-16T18:49:22.365Z,5.22
2022-10-16T18:51:57.066Z,4.95
2022-10-16T18:54:28.986Z,4.28
2022-10-16T18:57:00.252Z,4.43
2022-10-16T18:59:31.180Z,4.80
2022-10-16T19:02:02.972Z,5.80
2022-10-16T19:04:37.108Z,9.77
2022-10-16T19:07:07.826Z,7.75
2022-10-16T19:09:38.995Z,6.15
2022-10-16T19:12:10.994Z,4.85
2022-10-16T19:14:42.287Z,4.50
2022-10-16T19:17:13.323Z,3.78
2022-10-16T19:19:47.035Z,3.70
2022-10-16T19:22:28.533Z,3.67
2022-10-16T19:24:59.979Z,3.90
2022-10-16T19:27:31.412Z,3.38
2022-10-16T19:30:02.989Z,3.80
2022-10-16T19:32:36.039Z,3.75
2022-10-16T19:35:11.119Z,3.60
2022-10-16T19:37:42.926Z,3.47
2022-10-16T19:40:15.056Z,3.80
2022-10-16T19:42:46.128Z,3.80
2022-10-16T19:45:17.678Z,3.80
2022-10-16T19:47:51.363Z,3.80
2022-10-16T19:50:24.979Z,3.22
2022-10-16T19:52:56.391Z,3.97
2022-10-16T19:55:27.944Z,4.32
2022-10-16T19:57:58.626Z,3.90
2022-10-16T20:00:29.360Z,3.92
2022-10-16T20:03:01.963Z,4.00
2022-10-16T20:05:35.414Z,4.05
2022-10-16T20:08:06.186Z,3.58
2022-10-16T20:10:37.192Z,4.03
2022-10-16T20:13:08.477Z,4.80
2022-10-16T20:15:41.370Z,4.38
2022-10-16T20:18:12.177Z,4.43
2022-10-16T20:20:47.615Z,4.00
2022-10-16T20:23:18.413Z,3.85
2022-10-16T20:25:50.402Z,4.18
2022-10-16T20:28:23.722Z,4.15
2022-10-16T20:30:55.401Z,4.32
2022-10-16T20:33:26.646Z,4.25
2022-10-16T20:36:01.335Z,3.95
2022-10-16T20:38:32.408Z,4.22
2022-10-16T20:41:07.064Z,4.45
2022-10-16T20:43:38.377Z,3.80
2022-10-16T20:46:11.204Z,4.32
2022-10-16T20:48:44.806Z,4.32
2022-10-16T20:51:20.307Z,4.40
2022-10-16T20:53:54.686Z,5.22
2022-10-16T20:56:25.989Z,4.38
2022-10-16T20:58:57.019Z,4.55
2022-10-16T21:01:29.427Z,4.60
2022-10-16T21:04:03.319Z,4.20
2022-10-16T21:06:39.089Z,5.10
2022-10-16T21:09:11.311Z,4.43
2022-10-16T21:11:42.235Z,4.20
2022-10-16T21:14:12.936Z,4.80
2022-10-16T21:16:43.643Z,4.18
2022-10-16T21:19:15.035Z,5.13
2022-10-16T21:21:48.400Z,5.28
2022-10-16T21:24:19.047Z,5.00
2022-10-16T21:26:49.953Z,5.40
2022-10-16T21:29:20.881Z,5.07
2022-10-16T21:31:51.555Z,5.25
2022-10-16T21:34:22.625Z,5.47
2022-10-16T21:36:56.081Z,5.13
2022-10-16T21:39:26.865Z,4.97
2022-10-16T21:41:57.506Z,5.03
2022-10-16T21:44:28.489Z,4.72
2022-10-16T21:46:59.162Z,5.25
2022-10-16T21:49:29.856Z,4.75
2022-10-16T21:52:03.695Z,5.43
2022-10-16T21:54:34.636Z,5.18
2022-10-16T21:57:05.576Z,5.40
2022-10-16T21:59:36.348Z,5.35
2022-10-16T22:02:07.081Z,5.32
2022-10-16T22:04:38.259Z,5.38
2022-10-16T22:07:11.546Z,5.43
2022-10-16T22:09:42.242Z,5.13
2022-10-16T22:12:12.914Z,5.05
2022-10-16T22:14:43.822Z,5.60
2022-10-16T22:17:14.702Z,4.93
2022-10-16T22:19:45.753Z,5.10
2022-10-16T22:22:19.359Z,5.30
2022-10-16T22:24:50.094Z,5.82
2022-10-16T22:27:20.791Z,5.07
2022-10-16T22:29:54.736Z,5.32
2022-10-16T22:32:25.428Z,5.57
2022-10-16T22:34:56.282Z,4.95
2022-10-16T22:37:30.040Z,5.45
2022-10-16T22:40:01.316Z,5.55
2022-10-16T22:42:32.017Z,4.85
2022-10-16T22:45:02.902Z,5.65
2022-10-16T22:47:33.751Z,5.18
2022-10-16T22:50:04.662Z,5.05
2022-10-16T22:52:39.516Z,5.00
2022-10-16T22:55:11.016Z,5.32
2022-10-16T22:57:41.693Z,5.53
2022-10-16T23:00:16.742Z,5.00
2022-10-16T23:02:49.260Z,5.43
2022-10-16T23:05:20.109Z,5.30
2022-10-16T23:07:53.663Z,4.88
2022-10-16T23:10:28.445Z,5.15
2022-10-16T23:12:59.401Z,4.53
2022-10-16T23:15:30.159Z,5.75
2022-10-16T23:18:01.261Z,5.00
2022-10-16T23:20:32.052Z,4.70
2022-10-16T23:23:07.284Z,5.05
2022-10-16T23:25:38.502Z,4.55
2022-10-16T23:28:09.615Z,4.40
2022-10-16T23:30:42.401Z,4.40
2022-10-16T23:33:13.422Z,4.95
2022-10-16T23:35:44.311Z,4.55
2022-10-16T23:38:17.638Z,4.25
2022-10-16T23:40:48.396Z,4.75
2022-10-16T23:43:19.402Z,5.03
2022-10-16T23:45:50.484Z,4.60
2022-10-16T23:48:21.199Z,4.95
2022-10-16T23:50:51.893Z,4.80
2022-10-16T23:53:25.465Z,4.72
2022-10-16T23:55:56.518Z,5.07
2022-10-16T23:58:27.635Z,4.90
